Bookmark and Share
Track history (hours):
 

Callsign BAREU11 (name unknown)

Last reported at 2014-Apr-20 00:00 UTC. Time now 2014-Apr-20 00:55 UTC.
Position N 16°30' W 071°06'.

Barometer 1015.0 mb

NotesDate/timePositionNaut miles runAvg speedWind from/ knotsBaromVisibWave heightAir tempDewpointWater temp
2014-Apr-20 00:00N 16°30' W 071°06'6 5.8 1015.0
2014-Apr-19 23:00N 16°30' W 071°00'8 8.3 1014.5
2014-Apr-19 22:00N 16°24' W 071°06'1313.0 1013.5
2014-Apr-19 21:00N 16°18' W 071°18'1313.3 1013.5
2014-Apr-19 20:00N 16°06' W 071°24'8 8.3 1013.6
2014-Apr-19 19:00N 16°00' W 071°30'8 8.3 1013.8
2014-Apr-19 18:00N 15°54' W 071°36'1313.3 1014.2
2014-Apr-19 17:00N 15°42' W 071°42'8 8.3 1014.8
2014-Apr-19 16:00N 15°36' W 071°48'8 8.3 1015.0
2014-Apr-19 15:00N 15°30' W 071°54'8 8.3 1015.1
2014-Apr-19 14:00N 15°24' W 072°00'1313.3 1015.0
2014-Apr-19 13:00N 15°12' W 072°06'1716.7 1014.5
2014-Apr-19 12:00N 15°00' W 072°18'2713.3 1013.8
2014-Apr-19 10:00N 14°36' W 072°30'1716.7 1012.4
2014-Apr-19 09:00N 14°24' W 072°42'1716.7 1011.7
2014-Apr-19 08:00N 14°12' W 072°54'1313.3 1011.5
2014-Apr-19 07:00N 14°00' W 073°00'1716.7 1011.3
2014-Apr-19 06:00N 13°48' W 073°12'8 8.4 1011.8
2014-Apr-19 05:00N 13°42' W 073°18'1716.7 1012.3
2014-Apr-19 04:00N 13°30' W 073°30'1313.3 1012.4
2014-Apr-19 03:00N 13°18' W 073°36'1716.7 1012.0
2014-Apr-19 02:00N 13°06' W 073°48'1313.3 1011.1
2014-Apr-19 01:00N 12°54' W 073°54'1313.4 1009.9
2014-Apr-19 00:00N 12°42' W 074°00'1716.8 1009.0
2014-Apr-18 23:00N 12°30' W 074°12'8 8.4 1008.7
2014-Apr-18 22:00N 12°24' W 074°18'3014.9 1008.2
2014-Apr-18 20:00N 12°00' W 074°36'1716.8 1008.3
2014-Apr-18 19:00N 11°48' W 074°48'1313.4 1008.3
2014-Apr-18 18:00N 11°36' W 074°54'1716.8 1009.0
2014-Apr-18 17:00N 11°24' W 075°06'1313.4 1009.3
2014-Apr-18 16:00N 11°12' W 075°12'1716.8 1009.6
2014-Apr-18 15:00N 11°00' W 075°24'3517.4 1009.6
2014-Apr-18 13:00N 10°30' W 075°42'1313.4 1009.0
2014-Apr-18 12:00N 10°18' W 075°36'8 8.4 1008.6
2014-Apr-18 11:00N 10°24' W 075°30'0 0.0 1007.7
2014-Apr-17 21:00N 10°24' W 075°30'8 8.4 1006.8
2014-Apr-17 20:00N 10°18' W 075°36'1918.7 1007.6
2014-Apr-17 19:00N 10°24' W 075°54'0 0.0 1008.3
2014-Apr-17 17:00N 10°24' W 075°54'0 0.0 1010.2
2014-Apr-17 15:00N 10°24' W 075°54'0 0.0 1011.0
2014-Apr-17 14:00N 10°24' W 075°54'0 0.0 1010.8
2014-Apr-17 13:00N 10°24' W 075°54'0 0.0 1010.1
2014-Apr-17 12:00N 10°24' W 075°54'6 5.9 1009.4
2014-Apr-17 11:00N 10°24' W 075°48'6 5.9 1009.0
2014-Apr-17 10:00N 10°24' W 075°54'6 6.0 1008.5
2014-Apr-17 09:00N 10°18' W 075°54'1313.2 1008.0
2014-Apr-17 08:00N 10°12' W 076°06'1817.7 1008.2
2014-Apr-17 07:00N 10°12' W 076°24'1211.8 1008.6
2014-Apr-17 06:00N 10°12' W 076°36'1918.7 1009.5
2014-Apr-17 05:00N 10°06' W 076°54'1211.8 1010.1
2014-Apr-17 04:00N 10°06' W 077°06'1211.8 1010.5
2014-Apr-17 03:00N 10°06' W 077°18'1313.3 1010.6
2014-Apr-17 02:00N 10°00' W 077°30'1211.8 1010.4
2014-Apr-17 01:00N 10°00' W 077°42'1211.8 1009.9
2014-Apr-17 00:00N 10°00' W 077°54'1313.3 1009.5
2014-Apr-16 23:00N 09°54' W 078°06'1817.7 1009.2
2014-Apr-16 22:00N 09°54' W 078°24'1211.8 1008.6
2014-Apr-16 21:00N 09°54' W 078°36'1313.3 1009.0
2014-Apr-16 20:00N 09°48' W 078°48'1211.8 1009.7
2014-Apr-16 19:00N 09°48' W 079°00'1817.7 1010.8
2014-Apr-16 18:00N 09°48' W 079°18'1313.3 1012.0
2014-Apr-16 17:00N 09°42' W 079°30'1211.8 1012.8
2014-Apr-16 16:00N 09°42' W 079°42'1716.9 1013.1
2014-Apr-16 15:00N 09°30' W 079°54'6 0.4 1012.8
2014-Apr-16 00:00N 09°24' W 079°54'0 0.0 1010.0
2014-Apr-15 19:00N 09°24' W 079°54'6 3.0 1009.5
2014-Apr-15 17:00N 09°18' W 079°54'0 0.0 1009.7
2014-Apr-15 16:00N 09°18' W 079°54'6 6.0 1008.8
2014-Apr-15 15:00N 09°12' W 079°54'6 5.9 1008.8
2014-Apr-15 14:00N 09°12' W 079°48'8 8.4 1008.9
2014-Apr-15 13:00N 09°06' W 079°42'8 4.2 1007.9
2014-Apr-15 11:00N 09°00' W 079°36'0 0.0 1007.7
2014-Apr-15 10:00N 09°00' W 079°36'0 0.0 1008.7
2014-Apr-15 09:00N 09°00' W 079°36'13 2.2 1008.7
2014-Apr-15 03:00N 08°48' W 079°30'1818.0 1009.9
2014-Apr-15 02:00N 08°30' W 079°30'1313.4 1008.8
2014-Apr-15 01:00N 08°18' W 079°36'1818.0 1007.3
2014-Apr-15 00:00N 08°00' W 079°36'3618.2 1007.0
2014-Apr-14 22:00N 07°24' W 079°42'1313.4 1006.3
2014-Apr-14 21:00N 07°12' W 079°48'1818.0 1006.3
2014-Apr-14 20:00N 06°54' W 079°48'1313.4 1006.8
2014-Apr-14 19:00N 06°42' W 079°54'1818.0 1007.6
2014-Apr-14 18:00N 06°24' W 079°54'1919.0 1009.3
2014-Apr-14 17:00N 06°06' W 080°00'1818.0 1010.6
2014-Apr-14 16:00N 05°48' W 080°00'1919.0 1011.3
2014-Apr-14 15:00N 05°30' W 080°06'1919.0 1011.0
2014-Apr-14 14:00N 05°12' W 080°12'3618.2 1010.9
2014-Apr-14 12:00N 04°36' W 080°18'1818.0 1010.2
2014-Apr-14 11:00N 04°18' W 080°18'2524.7 1009.6
2014-Apr-14 10:00N 03°54' W 080°24'1818.0 1008.9
2014-Apr-14 09:00N 03°36' W 080°24'1919.0 1008.6
2014-Apr-14 08:00N 03°18' W 080°30'3618.2 1008.8
2014-Apr-14 06:00N 02°42' W 080°36'1919.0 1010.1
2014-Apr-14 05:00N 02°24' W 080°42'1818.0 1010.6
2014-Apr-14 04:00N 02°06' W 080°42'1919.0 1011.1
2014-Apr-14 03:00N 01°48' W 080°48'1919.0 1010.7
2014-Apr-14 02:00N 01°30' W 080°54'1919.0 1010.3
2014-Apr-14 01:00N 01°12' W 081°00'1818.0 1009.8
2014-Apr-14 00:00N 00°54' W 081°00'1919.0 1009.1
2014-Apr-13 23:00N 00°36' W 081°06'1212.0 1008.4
2014-Apr-13 22:00N 00°24' W 081°06'0 0.0 1008.1
2014-Apr-13 19:00N 00°24' W 081°06'0 0.0 1009.0
2014-Apr-13 18:00N 00°24' W 081°06'6 6.0 1009.9
2014-Apr-13 17:00N 00°18' W 081°06'1818.0 1010.7
2014-Apr-13 16:00N 00°00' W 081°06'1313.4 1010.9
2014-Apr-13 15:00S 00°12' W 081°12'3618.2 1011.2
2014-Apr-13 13:00S 00°48' W 081°18'1818.0 1011.0
2014-Apr-13 12:00S 01°06' W 081°18'1919.0 1010.1
2014-Apr-13 11:00S 01°24' W 081°24'1818.0 1009.3
2014-Apr-13 10:00S 01°42' W 081°24'1919.0 1008.7
2014-Apr-13 09:00S 02°00' W 081°30'1818.0 1008.5
2014-Apr-13 08:00S 02°18' W 081°30'3618.0 1008.8
2014-Apr-13 06:00S 02°54' W 081°30'1818.0 1010.1
2014-Apr-13 05:00S 03°12' W 081°30'1919.0 1011.0
2014-Apr-13 04:00S 03°30' W 081°36'1212.0 1011.3
2014-Apr-13 03:00S 03°42' W 081°36'1818.0 1011.0
2014-Apr-13 02:00S 04°00' W 081°36'3618.2 1010.9
2014-Apr-13 00:00S 04°36' W 081°30'3015.0 1009.4
2014-Apr-12 22:00S 05°06' W 081°30'1818.0 1008.6
2014-Apr-12 21:00S 05°24' W 081°30'1818.0 1009.0
2014-Apr-12 20:00S 05°42' W 081°30'1919.0 1009.7
2014-Apr-12 19:00S 06°00' W 081°24'1919.0 1010.8
2014-Apr-12 18:00S 06°18' W 081°18'1716.9 1012.0
2014-Apr-12 17:00S 06°30' W 081°06'1919.0 1013.0
2014-Apr-12 16:00S 06°48' W 081°00'1716.9 1013.7
2014-Apr-12 15:00S 07°00' W 080°48'1313.4 1014.0
2014-Apr-12 14:00S 07°12' W 080°42'2221.6 1013.6
2014-Apr-12 13:00S 07°30' W 080°30'1313.4 1013.1
2014-Apr-12 12:00S 07°42' W 080°24'2221.6 1012.4
2014-Apr-12 11:00S 08°00' W 080°12'1716.9 1011.9
2014-Apr-12 10:00S 08°12' W 080°00'1919.0 1011.6
2014-Apr-12 09:00S 08°30' W 079°54'2221.6 1011.6
2014-Apr-12 08:00S 08°48' W 079°42'1716.9 1011.8
2014-Apr-12 07:00S 09°00' W 079°30'1918.9 1012.3
2014-Apr-12 06:00S 09°18' W 079°24'1716.9 1013.0
2014-Apr-12 05:00S 09°30' W 079°12'1918.9 1013.5
2014-Apr-12 04:00S 09°48' W 079°06'1716.8 1013.4
2014-Apr-12 03:00S 10°00' W 078°54'2221.5 1013.4
2014-Apr-12 02:00S 10°18' W 078°42'1918.9 1013.2
2014-Apr-12 01:00S 10°36' W 078°36'1716.8 1012.9
2014-Apr-12 00:00S 10°48' W 078°24'2221.5 1012.2
2014-Apr-11 23:00S 11°06' W 078°12'5016.8 1011.4
2014-Apr-11 20:00S 11°42' W 077°36'1716.8 1010.9
2014-Apr-11 19:00S 11°54' W 077°24'1313.2 1011.2
2014-Apr-11 18:00S 12°00' W 077°12'6 5.9 1012.0
2014-Apr-11 17:00S 12°00' W 077°06'0 0.0 1013.0
2014-Apr-11 12:00S 12°00' W 077°06'0 0.0 1012.4
2014-Apr-11 11:00S 12°00' W 077°06'0 0.0 1011.5
2014-Apr-11 02:00S 12°00' W 077°06'6 5.9 1013.5
2014-Apr-11 01:00S 12°00' W 077°12'8 8.4 1012.8
2014-Apr-11 00:00S 12°06' W 077°18'1212.0 1012.8
2014-Apr-10 23:00S 12°18' W 077°18'3818.9 1012.4
2014-Apr-10 21:00S 12°54' W 077°06'1818.0 1011.8
2014-Apr-10 20:00S 13°12' W 077°06'3818.9 1012.4
2014-Apr-10 18:00S 13°48' W 076°54'1918.9 1013.8
2014-Apr-10 17:00S 14°06' W 076°48'3115.3 1014.8
2014-Apr-10 15:00S 14°36' W 076°42'1918.9 1016.5
2014-Apr-10 14:00S 14°54' W 076°36'1918.9 1016.4
2014-Apr-10 13:00S 15°12' W 076°30'1818.0 1016.1
2014-Apr-10 12:00S 15°30' W 076°30'2524.7 1015.8
2014-Apr-10 11:00S 15°54' W 076°24'1918.9 1015.2
2014-Apr-10 10:00S 16°12' W 076°18'1818.0 1014.8
2014-Apr-10 09:00S 16°30' W 076°18'3618.2 1014.5
2014-Apr-10 07:00S 17°06' W 076°12'3818.9 1015.3
2014-Apr-10 05:00S 17°42' W 076°00'1818.0 1016.8
2014-Apr-10 04:00S 18°00' W 076°00'1918.9 1017.1
2014-Apr-10 03:00S 18°18' W 075°54'1818.0 1017.6
2014-Apr-10 02:00S 18°36' W 075°54'1918.9 1017.6
2014-Apr-10 01:00S 18°54' W 075°48'1818.0 1016.6
2014-Apr-10 00:00S 19°12' W 075°48'   1016.2

Dump ship's entire track history

sailing weather and tide predictions

Ship Status Report: callsign BAREU11